Palmyra, ME

5:58 PM EDT on August 22, 2014 (GMT -0400)
Augusta State | Change Station
CLOSE
Current Station
Airport
Location: Augusta,
Elevation: 351 ft
Nearby Weather Stations

Elev 351 ft 44.32 °N, 69.80 °W | Updated 1 hour ago

Overcast
Overcast
70 °F
Feels Like 70 °F
N
8
Wind Variable Wind from SSE

Today
High -- | Low -- °F
--% Chance of Precip.
Yesterday
High -- | Low -- °F
Precip. -- in
5:47 AM 7:32 PM
Waning Crescent, 6% visible
Pressure 30.12 in
Visibility 10.0 miles
Clouds Scattered Clouds 3700 ft
Mostly Cloudy 4600 ft
Overcast 9000 ft
Dew Point 61 °F
Humidity 73%
Rainfall 0.01 in
Snow Depth Not available.
UV 1 out of 12
Pollen 6.90 out of 12
Air Quality Not available.
Flu Activity Not available.
METAR KAUG 222053Z AUTO 16007KT 10SM SCT037 BKN046 OVC090 21/16 A3012

More Conditions Fewer Conditions

Pressure 30.12 in
Visibility 10.0 miles
Clouds Scattered Clouds 3700 ft
Mostly Cloudy 4600 ft
Overcast 9000 ft
Dew Point 61 °F
Humidity 73%
Rainfall 0.01 in
Snow Depth Not available.
UV 1 out of 12
Pollen 6.90 out of 12
Air Quality Not available.
Flu Activity Not available.
METAR KAUG 222053Z AUTO 16007KT 10SM SCT037 BKN046 OVC090 21/16 A3012

More Conditions Fewer Conditions

10-Day Weather Forecast

Almanac

Astronomy

Aug. 22, 2014 Rise Set
Actual Time 5:47 AM EDT 7:32 PM EDT
Civil Twilight 5:16 AM EDT 8:03 PM EDT
Nautical Twilight 4:38 AM EDT 8:40 PM EDT
Astronomical Twilight 3:57 AM EDT 9:21 PM EDT
Moon 3:04 AM EDT 5:40 PM EDT
Length of Visible Light 14h 46m
Length of Day
13h 44m
Tomorrow will be 2m 55s shorter.
Waning Crescent, 6% of the Moon is Illuminated
Today
Waning Crescent
Aug 25
New
Sep 2
First Quarter
Sep 8
Full
Sep 15
Last Quarter

Today's Extremes

State Highs State Lows

Community

WunderPhotos

Upload Photos

1,746,260 photos uploaded!

Nearby

Air Quality

  Air Quality AQ Index Pollutant
Yesterday Good
OZONE
Yesterday Good
PM2.5
Friday Good
OZONE
Friday Good
PM2.5
Saturday Good
OZONE
Saturday Good
PM2.5
Sunday Good
OZONE
Sunday Good
PM2.5
Monday Good
OZONE
Monday Good
PM2.5
Tuesday Good
OZONE
Tuesday Good
PM2.5

Snow Depth

Station Depth Elevation
No new snow has been reported.

Earthquake Activity

City Distance Mag. Time & Date
No recent earthquake activity has been reported nearby.
Minimum magnitude displayed is 2.5.

Coastal Water Temperatures

Place Temperature
No Stations Reporting

Nearby Weather Stations